createdAt,value
2022-12-04T00:00:17.552Z,51.10
2022-12-04T00:03:13.687Z,52.10
2022-12-04T00:05:49.965Z,52.10
2022-12-04T00:08:25.870Z,49.10
2022-12-04T00:11:02.155Z,50.60
2022-12-04T00:13:39.310Z,48.60
2022-12-04T00:16:20.245Z,46.30
2022-12-04T00:18:57.007Z,59.10
2022-12-04T00:21:33.179Z,52.50
2022-12-04T00:24:10.366Z,54.40
2022-12-04T00:26:46.315Z,54.50
2022-12-04T00:29:22.389Z,55.60
2022-12-04T00:31:58.764Z,49.50
2022-12-04T00:34:34.599Z,55.80
2022-12-04T00:37:10.425Z,56.60
2022-12-04T00:39:46.302Z,54.70
2022-12-04T00:42:22.222Z,60.70
2022-12-04T00:44:58.170Z,52.90
2022-12-04T00:47:34.072Z,56.20
2022-12-04T00:50:13.602Z,53.10
2022-12-04T00:52:49.505Z,52.90
2022-12-04T00:55:27.149Z,60.50
2022-12-04T00:58:03.462Z,56.90
2022-12-04T01:00:41.285Z,52.00
2022-12-04T01:03:17.333Z,51.30
2022-12-04T01:05:53.340Z,51.40
2022-12-04T01:08:29.677Z,60.10
2022-12-04T01:11:09.902Z,69.70
2022-12-04T01:13:46.051Z,59.40
2022-12-04T01:16:29.804Z,51.00
2022-12-04T01:19:06.557Z,59.80
2022-12-04T01:21:43.302Z,56.60
2022-12-04T01:24:19.508Z,59.60
2022-12-04T01:26:56.488Z,59.80
2022-12-04T01:29:32.709Z,55.00
2022-12-04T01:32:09.631Z,55.00
2022-12-04T01:34:46.000Z,63.60
2022-12-04T01:37:22.013Z,50.40
2022-12-04T01:39:58.138Z,52.80
2022-12-04T01:42:34.060Z,56.10
2022-12-04T01:45:47.338Z,57.10
2022-12-04T01:48:33.631Z,56.00
2022-12-04T01:51:18.765Z,50.50
2022-12-04T01:54:00.466Z,52.70
2022-12-04T01:56:46.225Z,54.20
2022-12-04T01:59:32.296Z,46.70
2022-12-04T02:02:15.738Z,48.00
2022-12-04T02:04:53.819Z,49.60
2022-12-04T02:07:30.329Z,61.50
2022-12-04T02:10:08.930Z,60.10
2022-12-04T02:12:57.703Z,58.30
2022-12-04T02:15:48.010Z,56.30
2022-12-04T02:18:36.279Z,47.10
2022-12-04T02:21:22.694Z,49.60
2022-12-04T02:24:21.875Z,45.20
2022-12-04T02:27:05.966Z,46.20
2022-12-04T02:29:55.496Z,42.30
2022-12-04T02:32:43.769Z,47.80
2022-12-04T02:35:30.199Z,43.50
2022-12-04T02:38:22.597Z,48.00
2022-12-04T02:41:08.172Z,44.80
2022-12-04T02:43:51.502Z,45.50
2022-12-04T02:46:35.671Z,48.60
2022-12-04T02:49:19.891Z,38.60
2022-12-04T02:51:58.680Z,46.20
2022-12-04T02:54:41.304Z,41.70
2022-12-04T02:57:25.570Z,44.70
2022-12-04T03:00:06.193Z,41.00
2022-12-04T03:02:53.623Z,47.90
2022-12-04T03:05:40.845Z,43.40
2022-12-04T03:08:24.174Z,39.80
2022-12-04T03:11:04.471Z,42.80
2022-12-04T03:13:50.881Z,42.60
2022-12-04T03:16:33.969Z,43.30
2022-12-04T03:19:17.387Z,30.90
2022-12-04T03:22:02.322Z,34.50
2022-12-04T03:24:43.475Z,36.30
2022-12-04T03:27:32.069Z,39.90
2022-12-04T03:30:16.512Z,41.00
2022-12-04T03:33:00.154Z,39.20
2022-12-04T03:35:48.692Z,37.80
2022-12-04T03:38:32.222Z,41.20
2022-12-04T03:41:16.203Z,39.60
2022-12-04T03:43:58.518Z,42.70
2022-12-04T03:46:43.684Z,41.10
2022-12-04T03:49:32.577Z,29.80
2022-12-04T03:52:19.996Z,37.40
2022-12-04T03:55:03.013Z,38.70
2022-12-04T03:57:45.745Z,47.00
2022-12-04T04:00:24.725Z,43.60
2022-12-04T04:03:12.072Z,37.50
2022-12-04T04:05:56.195Z,43.30
2022-12-04T04:08:39.974Z,44.30
2022-12-04T04:11:23.460Z,38.30
2022-12-04T04:14:24.189Z,40.50
2022-12-04T04:17:27.379Z,39.60
2022-12-04T04:20:30.956Z,42.00
2022-12-04T04:23:28.406Z,39.80
2022-12-04T04:26:06.272Z,39.70
2022-12-04T04:28:44.328Z,38.70
2022-12-04T04:31:35.038Z,33.90
2022-12-04T04:34:25.867Z,48.00
2022-12-04T04:37:18.132Z,50.00
2022-12-04T04:40:08.028Z,39.10
2022-12-04T04:42:52.632Z,37.40
2022-12-04T04:45:36.394Z,37.70
2022-12-04T04:48:20.570Z,37.20
2022-12-04T04:50:57.784Z,38.90
2022-12-04T04:53:48.111Z,35.70
2022-12-04T04:56:25.193Z,41.20
2022-12-04T04:59:01.171Z,34.30
2022-12-04T05:01:37.768Z,36.80
2022-12-04T05:04:14.555Z,36.30
2022-12-04T05:06:50.467Z,39.30
2022-12-04T05:09:26.676Z,34.20
2022-12-04T05:12:02.581Z,37.10
2022-12-04T05:14:38.417Z,31.70
2022-12-04T05:17:14.273Z,33.70
2022-12-04T05:19:57.108Z,35.40
2022-12-04T05:22:37.006Z,35.70
2022-12-04T05:25:14.731Z,31.30
2022-12-04T05:27:50.792Z,32.10
2022-12-04T05:30:26.748Z,35.70
2022-12-04T05:33:02.623Z,33.70
2022-12-04T05:35:38.588Z,34.50
2022-12-04T05:38:14.412Z,32.30
2022-12-04T05:40:50.278Z,32.10
2022-12-04T05:43:26.349Z,34.40
2022-12-04T05:46:07.063Z,33.70
2022-12-04T05:48:43.036Z,34.00
2022-12-04T05:51:18.910Z,34.20
2022-12-04T05:53:56.972Z,31.50
2022-12-04T05:56:32.965Z,32.30
2022-12-04T05:59:09.369Z,33.10
2022-12-04T06:01:46.182Z,34.90
2022-12-04T06:04:23.143Z,29.60
2022-12-04T06:06:59.867Z,33.10
2022-12-04T06:09:35.667Z,31.80
2022-12-04T06:12:11.797Z,31.50
2022-12-04T06:14:47.833Z,28.60
2022-12-04T06:17:23.892Z,30.20
2022-12-04T06:20:00.388Z,32.10
2022-12-04T06:22:36.624Z,26.00
2022-12-04T06:25:14.368Z,30.10
2022-12-04T06:27:50.300Z,27.30
2022-12-04T06:30:26.514Z,27.70
2022-12-04T06:33:02.303Z,25.00
2022-12-04T06:35:38.583Z,29.80
2022-12-04T06:38:14.440Z,31.20
2022-12-04T06:40:50.369Z,32.00
2022-12-04T06:43:26.869Z,24.20
2022-12-04T06:46:12.840Z,30.10
2022-12-04T06:48:49.631Z,25.30
2022-12-04T06:51:29.795Z,26.40
2022-12-04T06:54:06.319Z,27.80
2022-12-04T06:56:42.236Z,25.80
2022-12-04T06:59:18.299Z,24.20
2022-12-04T07:01:54.440Z,25.70
2022-12-04T07:04:30.249Z,24.80
2022-12-04T07:07:06.107Z,25.80
2022-12-04T07:09:42.179Z,27.10
2022-12-04T07:12:18.544Z,25.80
2022-12-04T07:14:54.509Z,25.90
2022-12-04T07:17:30.858Z,26.30
2022-12-04T07:20:08.582Z,24.50
2022-12-04T07:22:44.439Z,26.10
2022-12-04T07:25:21.078Z,24.60
2022-12-04T07:27:57.759Z,25.70
2022-12-04T07:30:34.016Z,26.60
2022-12-04T07:33:10.383Z,27.10
2022-12-04T07:35:46.440Z,29.00
2022-12-04T07:38:22.448Z,26.10
2022-12-04T07:41:01.551Z,23.50
2022-12-04T07:43:38.407Z,25.30
2022-12-04T07:46:19.744Z,23.80
2022-12-04T07:48:58.288Z,26.10
2022-12-04T07:51:34.667Z,27.70
2022-12-04T07:54:10.670Z,26.70
2022-12-04T07:56:46.681Z,27.30
2022-12-04T07:59:22.667Z,26.50
2022-12-04T08:01:59.217Z,23.50
2022-12-04T08:04:35.290Z,25.40
2022-12-04T08:07:11.368Z,29.00
2022-12-04T08:09:47.708Z,25.70
2022-12-04T08:12:23.958Z,25.80
2022-12-04T08:15:00.027Z,25.20
2022-12-04T08:17:35.975Z,25.30
2022-12-04T08:20:14.720Z,26.90
2022-12-04T08:22:50.832Z,24.70
2022-12-04T08:25:27.669Z,28.00
2022-12-04T08:28:03.654Z,24.00
2022-12-04T08:30:40.322Z,34.50
2022-12-04T08:33:16.221Z,26.20
2022-12-04T08:35:52.939Z,24.80
2022-12-04T08:38:29.029Z,24.10
2022-12-04T08:41:10.087Z,24.40
2022-12-04T08:43:46.680Z,24.70
2022-12-04T08:46:29.456Z,24.70
2022-12-04T08:49:06.966Z,23.30
2022-12-04T08:51:43.877Z,24.80
2022-12-04T08:54:20.194Z,24.80
2022-12-04T08:56:57.640Z,25.90
2022-12-04T08:59:34.325Z,24.50
2022-12-04T09:02:16.914Z,22.30
2022-12-04T09:04:54.175Z,22.10
2022-12-04T09:07:30.648Z,23.90
2022-12-04T09:10:09.347Z,22.70
2022-12-04T09:12:45.540Z,56.60
2022-12-04T09:15:23.666Z,21.50
2022-12-04T09:18:00.589Z,22.70
2022-12-04T09:20:41.930Z,24.50
2022-12-04T09:23:18.752Z,21.20
2022-12-04T09:25:56.193Z,21.20
2022-12-04T09:28:32.943Z,22.00
2022-12-04T09:31:10.836Z,26.00
2022-12-04T09:33:49.148Z,21.70
2022-12-04T09:36:27.652Z,19.20
2022-12-04T09:39:05.744Z,18.00
2022-12-04T09:42:17.164Z,21.50
2022-12-04T09:45:04.855Z,24.00
2022-12-04T09:47:48.073Z,21.90
2022-12-04T09:50:32.244Z,23.30
2022-12-04T09:53:17.530Z,19.50
2022-12-04T09:56:06.250Z,20.40
2022-12-04T09:58:56.624Z,17.80
2022-12-04T10:01:45.087Z,18.00
2022-12-04T10:04:23.333Z,21.80
2022-12-04T10:07:14.949Z,22.60
2022-12-04T10:10:07.095Z,23.50
2022-12-04T10:13:02.884Z,21.30
2022-12-04T10:15:54.496Z,20.40
2022-12-04T10:18:55.546Z,22.20
2022-12-04T10:22:00.498Z,20.80
2022-12-04T10:24:51.187Z,22.30
2022-12-04T10:27:39.032Z,20.20
2022-12-04T10:30:27.707Z,22.00
2022-12-04T10:33:23.345Z,21.10
2022-12-04T10:36:03.038Z,21.00
2022-12-04T10:38:48.881Z,19.10
2022-12-04T10:41:37.355Z,20.80
2022-12-04T10:44:19.863Z,20.10
2022-12-04T10:47:00.859Z,20.40
2022-12-04T10:49:40.693Z,22.00
2022-12-04T10:52:18.568Z,20.00
2022-12-04T10:55:01.992Z,19.90
2022-12-04T10:57:46.097Z,19.30
2022-12-04T11:00:35.910Z,19.80
2022-12-04T11:03:29.963Z,19.70
2022-12-04T11:06:12.112Z,24.50
2022-12-04T11:08:55.996Z,20.00
2022-12-04T11:11:36.682Z,22.60
2022-12-04T11:14:21.526Z,20.70
2022-12-04T11:17:08.917Z,23.00
2022-12-04T11:19:45.339Z,22.60
2022-12-04T11:22:23.223Z,23.80
2022-12-04T11:25:02.859Z,20.00
2022-12-04T11:27:40.610Z,22.80
2022-12-04T11:30:32.401Z,22.30
2022-12-04T11:33:21.334Z,20.30
2022-12-04T11:36:03.333Z,20.20
2022-12-04T11:38:41.790Z,22.40
2022-12-04T11:41:32.614Z,20.10
2022-12-04T11:44:21.281Z,21.50
2022-12-04T11:47:03.788Z,21.20
2022-12-04T11:49:43.797Z,24.50
2022-12-04T11:52:50.866Z,20.80
2022-12-04T11:55:42.373Z,23.30
2022-12-04T11:59:10.544Z,24.10
2022-12-04T12:01:58.911Z,24.30
2022-12-04T12:05:13.146Z,24.20
2022-12-04T12:08:05.883Z,21.10
2022-12-04T12:10:54.933Z,20.70
2022-12-04T12:13:44.911Z,24.20
2022-12-04T12:16:31.268Z,21.60
2022-12-04T12:19:40.579Z,21.90
2022-12-04T12:22:37.620Z,19.20
2022-12-04T12:25:23.247Z,21.70
2022-12-04T12:28:28.674Z,21.90
2022-12-04T12:31:33.513Z,22.50
2022-12-04T12:34:17.025Z,21.40
2022-12-04T12:37:00.693Z,25.90
2022-12-04T12:39:46.377Z,27.60
2022-12-04T12:42:31.945Z,21.50
2022-12-04T12:45:28.484Z,24.30
2022-12-04T12:48:17.984Z,27.50
2022-12-04T12:51:28.587Z,28.10
2022-12-04T12:54:10.932Z,26.30
2022-12-04T12:56:56.410Z,23.10
2022-12-04T12:59:33.516Z,25.50
2022-12-04T13:02:22.174Z,26.40
2022-12-04T13:05:05.331Z,29.10
2022-12-04T13:07:55.643Z,24.20
2022-12-04T13:10:41.932Z,28.00
2022-12-04T13:13:27.871Z,30.00
2022-12-04T13:16:13.385Z,25.20
2022-12-04T13:18:56.603Z,29.90
2022-12-04T13:21:47.982Z,24.90
2022-12-04T13:25:04.323Z,22.30
2022-12-04T13:28:03.795Z,22.40
2022-12-04T13:30:58.471Z,21.30
2022-12-04T13:34:24.984Z,25.90
2022-12-04T13:37:50.677Z,24.20
2022-12-04T13:40:44.131Z,22.30
2022-12-04T13:43:36.566Z,24.00
2022-12-04T13:46:32.409Z,24.60
2022-12-04T13:49:30.378Z,23.10
2022-12-04T13:52:23.179Z,25.10
2022-12-04T13:55:04.351Z,24.80
2022-12-04T13:57:53.601Z,24.70
2022-12-04T14:00:38.544Z,28.40
2022-12-04T14:03:33.071Z,25.60
2022-12-04T14:06:29.888Z,23.10
2022-12-04T14:09:20.986Z,29.80
2022-12-04T14:12:02.932Z,27.90
2022-12-04T14:17:28.627Z,29.00
2022-12-04T14:20:09.078Z,27.60
2022-12-04T14:22:48.860Z,25.20
2022-12-04T14:25:41.199Z,25.40
2022-12-04T14:28:45.545Z,25.80
2022-12-04T14:31:43.681Z,29.20
2022-12-04T14:34:31.916Z,25.60
2022-12-04T14:37:17.920Z,24.50
2022-12-04T14:39:56.771Z,24.50
2022-12-04T14:42:40.422Z,25.80
2022-12-04T14:45:36.402Z,33.40
2022-12-04T14:48:36.015Z,30.20
2022-12-04T14:51:24.077Z,30.30
2022-12-04T14:54:13.903Z,30.50
2022-12-04T14:57:17.314Z,35.00
2022-12-04T14:59:56.238Z,28.30
2022-12-04T15:02:45.818Z,30.60
2022-12-04T15:05:30.541Z,34.30
2022-12-04T15:08:09.755Z,38.20
2022-12-04T15:11:11.580Z,34.20
2022-12-04T15:16:28.619Z,35.30
2022-12-04T15:19:05.252Z,35.10
2022-12-04T15:21:46.124Z,29.80
2022-12-04T15:24:24.623Z,34.40
2022-12-04T15:27:01.265Z,32.80
2022-12-04T15:29:48.334Z,28.30
2022-12-04T15:32:31.192Z,27.00
2022-12-04T15:35:16.992Z,29.80
2022-12-04T15:37:54.349Z,26.60
2022-12-04T15:40:33.179Z,29.20
2022-12-04T15:43:31.408Z,47.70
2022-12-04T15:46:28.361Z,26.50
2022-12-04T15:49:31.049Z,29.30
2022-12-04T15:55:02.868Z,96.60
2022-12-04T15:57:44.979Z,31.90
2022-12-04T16:00:36.804Z,24.80
2022-12-04T16:03:30.867Z,24.60
2022-12-04T16:06:27.340Z,26.60
2022-12-04T16:09:22.938Z,31.10
2022-12-04T16:12:21.006Z,29.10
2022-12-04T16:15:00.242Z,27.50
2022-12-04T16:17:41.261Z,27.10
2022-12-04T16:20:19.076Z,27.10
2022-12-04T16:22:57.401Z,28.40
2022-12-04T16:25:34.474Z,26.90
2022-12-04T16:28:10.661Z,27.10
2022-12-04T16:30:47.242Z,31.80
2022-12-04T16:33:23.614Z,31.30
2022-12-04T16:36:00.882Z,27.50
2022-12-04T16:38:37.255Z,30.20
2022-12-04T16:41:21.317Z,27.70
2022-12-04T16:44:03.219Z,27.40
2022-12-04T16:46:43.097Z,26.50
2022-12-04T16:49:19.358Z,30.50
2022-12-04T16:51:55.853Z,31.20
2022-12-04T16:54:32.119Z,31.20
2022-12-04T16:57:08.882Z,30.50
2022-12-04T16:59:44.855Z,29.30
2022-12-04T17:02:29.686Z,32.40
2022-12-04T17:05:07.647Z,28.20
2022-12-04T17:07:44.623Z,30.60
2022-12-04T17:10:24.240Z,30.10
2022-12-04T17:13:01.148Z,29.10
2022-12-04T17:15:37.370Z,35.70
2022-12-04T17:18:19.255Z,30.90
2022-12-04T17:20:57.256Z,31.90
2022-12-04T17:23:33.332Z,30.20
2022-12-04T17:26:17.100Z,30.90
2022-12-04T17:28:57.394Z,29.90
2022-12-04T17:31:34.929Z,31.40
2022-12-04T17:34:14.111Z,33.20
2022-12-04T17:36:51.139Z,33.30
2022-12-04T17:39:28.131Z,31.80
2022-12-04T17:42:04.594Z,24.50
2022-12-04T17:44:41.041Z,29.10
2022-12-04T17:47:18.193Z,30.50
2022-12-04T17:49:58.115Z,31.90
2022-12-04T17:52:40.222Z,32.20
2022-12-04T17:55:16.970Z,35.30
2022-12-04T17:57:55.506Z,33.60
2022-12-04T18:00:31.993Z,33.50
2022-12-04T18:03:08.210Z,34.40
2022-12-04T18:05:44.657Z,31.40
2022-12-04T18:08:24.339Z,30.20
2022-12-04T18:11:06.310Z,35.20
2022-12-04T18:13:42.819Z,31.10
2022-12-04T18:16:19.316Z,34.30
2022-12-04T18:18:58.032Z,30.00
2022-12-04T18:21:36.173Z,25.70
2022-12-04T18:24:14.111Z,29.10
2022-12-04T18:26:54.030Z,25.20
2022-12-04T18:29:31.060Z,35.10
2022-12-04T18:32:14.190Z,30.90
2022-12-04T18:34:53.134Z,32.80
2022-12-04T18:37:31.256Z,30.10
2022-12-04T18:40:12.042Z,35.30
2022-12-04T18:42:49.327Z,31.70
2022-12-04T18:45:25.987Z,31.00
2022-12-04T18:48:02.333Z,21.90
2022-12-04T18:50:41.414Z,26.90
2022-12-04T18:53:18.956Z,25.50
2022-12-04T18:55:57.267Z,34.30
2022-12-04T18:58:33.881Z,31.10
2022-12-04T19:01:14.044Z,29.30
2022-12-04T19:04:00.894Z,22.40
2022-12-04T19:06:44.504Z,31.00
2022-12-04T19:10:02.552Z,30.80
2022-12-04T19:12:32.971Z,31.80
2022-12-04T19:15:16.915Z,33.30
2022-12-04T19:17:57.336Z,30.20
2022-12-04T19:20:35.711Z,39.40
2022-12-04T19:23:14.527Z,27.30
2022-12-04T19:26:03.405Z,35.40
2022-12-04T19:28:42.688Z,32.20
2022-12-04T19:31:25.273Z,28.90
2022-12-04T19:34:04.805Z,34.80
2022-12-04T19:36:45.469Z,32.80
2022-12-04T19:39:23.708Z,27.00
2022-12-04T19:41:59.764Z,30.10
2022-12-04T19:44:51.994Z,30.00
2022-12-04T19:47:28.264Z,26.10
2022-12-04T19:50:04.957Z,29.30
2022-12-04T19:52:41.509Z,33.40
2022-12-04T19:55:17.931Z,36.10
2022-12-04T19:57:54.027Z,33.40
2022-12-04T20:00:30.567Z,27.00
2022-12-04T20:03:07.694Z,34.90
2022-12-04T20:05:50.799Z,31.10
2022-12-04T20:08:27.166Z,35.60
2022-12-04T20:11:10.947Z,30.70
2022-12-04T20:13:55.867Z,36.80
2022-12-04T20:16:36.092Z,36.40
2022-12-04T20:19:17.094Z,27.50
2022-12-04T20:21:59.481Z,38.10
2022-12-04T20:24:40.630Z,37.40
2022-12-04T20:27:20.106Z,36.60
2022-12-04T20:29:56.599Z,27.40
2022-12-04T20:32:34.811Z,31.60
2022-12-04T20:35:13.012Z,35.80
2022-12-04T20:37:49.056Z,36.00
2022-12-04T20:40:25.724Z,34.00
2022-12-04T20:43:02.524Z,31.60
2022-12-04T20:45:38.887Z,32.90
2022-12-04T20:48:15.123Z,36.40
2022-12-04T20:50:51.389Z,34.70
2022-12-04T20:53:27.654Z,31.70
2022-12-04T20:56:03.721Z,37.70
2022-12-04T20:58:39.911Z,36.10
2022-12-04T21:01:19.448Z,36.30
2022-12-04T21:03:57.113Z,35.50
2022-12-04T21:06:37.017Z,38.70
2022-12-04T21:09:17.501Z,34.90
2022-12-04T21:11:56.648Z,31.90
2022-12-04T21:14:52.351Z,42.50
2022-12-04T21:17:28.353Z,32.30
2022-12-04T21:20:07.932Z,40.40
2022-12-04T21:22:44.419Z,37.00
2022-12-04T21:25:20.683Z,33.00
2022-12-04T21:27:56.654Z,31.60
2022-12-04T21:30:33.726Z,36.10
2022-12-04T21:33:09.988Z,36.40
2022-12-04T21:35:46.158Z,35.90
2022-12-04T21:38:22.073Z,32.70
2022-12-04T21:40:58.061Z,31.60
2022-12-04T21:43:36.577Z,33.40
2022-12-04T21:46:13.507Z,35.30
2022-12-04T21:48:49.456Z,32.90
2022-12-04T21:51:48.735Z,32.30
2022-12-04T21:54:21.184Z,25.60
2022-12-04T21:56:58.287Z,37.40
2022-12-04T21:59:34.623Z,35.50
2022-12-04T22:02:11.221Z,37.00
2022-12-04T22:04:47.571Z,35.20
2022-12-04T22:07:23.518Z,32.30
2022-12-04T22:10:02.976Z,35.70
2022-12-04T22:12:49.395Z,37.40
2022-12-04T22:15:26.326Z,33.60
2022-12-04T22:18:02.489Z,40.20
2022-12-04T22:20:41.316Z,38.60
2022-12-04T22:23:17.563Z,36.60
2022-12-04T22:25:55.783Z,39.60
2022-12-04T22:28:32.047Z,32.10
2022-12-04T22:31:15.643Z,33.70
2022-12-04T22:33:55.223Z,43.80
2022-12-04T22:36:34.004Z,34.30
2022-12-04T22:39:11.019Z,43.00
2022-12-04T22:41:47.327Z,35.40
2022-12-04T22:44:23.492Z,35.00
2022-12-04T22:46:59.491Z,43.60
2022-12-04T22:49:35.564Z,33.30
2022-12-04T22:52:11.664Z,40.20
2022-12-04T22:54:47.679Z,34.70
2022-12-04T22:57:23.762Z,34.10
2022-12-04T22:59:59.862Z,33.90
2022-12-04T23:02:36.829Z,31.80
2022-12-04T23:05:13.804Z,42.50
2022-12-04T23:07:49.754Z,40.70
2022-12-04T23:10:25.674Z,39.90
2022-12-04T23:13:01.691Z,37.00
2022-12-04T23:15:41.775Z,34.70
2022-12-04T23:18:17.941Z,33.80
2022-12-04T23:20:53.754Z,38.80
2022-12-04T23:23:29.751Z,38.30
2022-12-04T23:26:11.720Z,35.70
2022-12-04T23:28:48.654Z,34.80
2022-12-04T23:31:25.309Z,42.20
2022-12-04T23:34:01.937Z,38.10
2022-12-04T23:36:38.341Z,37.40
2022-12-04T23:39:14.137Z,38.00
2022-12-04T23:41:50.057Z,36.20
2022-12-04T23:44:26.206Z,37.10
2022-12-04T23:47:02.067Z,39.60
2022-12-04T23:49:38.023Z,39.50
2022-12-04T23:52:14.214Z,36.70
2022-12-04T23:54:50.646Z,35.10
2022-12-04T23:57:29.309Z,30.60
